Time;durP1;ratioP1;P1;durP2;ratioP2;P2;SDS_P1;SDS_P2;PMS_P1;PMS_P2;Temp;Humidity;BMP_temperature;BMP_pressure;BME280_temperature;BME280_humidity;BME280_pressure;Samples;Min_cycle;Max_cycle;Signal;HPM_P1;HPM_P2
2023/06/12 00:02:17;;;;;;;5.18;3.33;;;;;;;-144.73;84.79;54177.81;5049358;28;20120;-70
2023/06/12 00:04:44;;;;;;;9.82;3.80;;;;;;;-144.73;84.69;54165.50;5052410;28;20024;-69
2023/06/12 00:07:10;;;;;;;18.42;3.60;;;;;;;-144.73;84.94;54163.47;5067340;28;20052;-69
2023/06/12 00:09:36;;;;;;;13.95;3.67;;;;;;;-144.73;84.88;54173.72;5069742;28;20020;-69
2023/06/12 00:12:01;;;;;;;13.60;4.03;;;;;;;-144.73;83.43;54165.50;5068773;28;20024;-69
2023/06/12 00:14:26;;;;;;;9.70;3.47;;;;;;;-144.73;83.59;54157.31;5057205;28;20021;-69
2023/06/12 00:16:52;;;;;;;14.52;3.90;;;;;;;-144.73;85.18;54145.00;5068836;28;20032;-69
2023/06/12 00:19:18;;;;;;;8.95;3.50;;;;;;;-144.73;84.44;54169.63;5051746;28;20550;-69
2023/06/12 00:21:44;;;;;;;18.10;3.45;;;;;;;-144.73;83.61;54169.63;5066747;28;20044;-69
2023/06/12 00:24:09;;;;;;;12.13;3.40;;;;;;;-144.73;84.33;54186.03;5055537;28;20059;-69
2023/06/12 00:26:35;;;;;;;11.55;3.63;;;;;;;-144.73;84.21;54171.66;5053239;28;20028;-69
2023/06/12 00:29:01;;;;;;;8.27;3.65;;;;;;;-144.73;84.72;54165.50;5064883;28;20060;-69
2023/06/12 00:31:26;;;;;;;13.35;3.88;;;;;;;-144.73;84.26;54145.00;5052884;28;20043;-69
2023/06/12 00:33:52;;;;;;;12.88;3.38;;;;;;;-144.73;83.81;54169.63;5069929;28;20016;-69
2023/06/12 00:36:17;;;;;;;10.00;3.55;;;;;;;-144.73;85.25;54145.00;5057242;28;20028;-68
2023/06/12 00:38:42;;;;;;;13.45;5.00;;;;;;;-144.73;84.48;54161.41;5050583;28;20028;-69
2023/06/12 00:41:08;;;;;;;14.40;3.72;;;;;;;-144.73;83.76;54122.41;5069222;28;20043;-69
2023/06/12 00:43:33;;;;;;;10.10;4.00;;;;;;;-144.73;84.48;54169.63;5068516;28;20036;-69
2023/06/12 00:45:59;;;;;;;10.90;3.60;;;;;;;-144.73;84.84;54208.63;5053239;28;20016;-69
2023/06/12 00:48:25;;;;;;;9.00;3.90;;;;;;;-144.73;85.05;54190.13;5059084;28;20060;-68
2023/06/12 00:50:52;;;;;;;12.25;3.22;;;;;;;-144.73;85.50;54120.34;5073869;28;20013;-70
2023/06/12 00:53:18;;;;;;;17.80;3.70;;;;;;;-144.73;86.03;54177.81;5057002;28;20032;-69
2023/06/12 00:55:44;;;;;;;16.38;3.90;;;;;;;-144.73;86.22;54145.00;5071050;28;20509;-69
2023/06/12 00:58:10;;;;;;;23.27;4.82;;;;;;;-144.73;86.18;54181.94;5056930;28;20055;-69
2023/06/12 01:00:41;;;;;;;6.78;3.80;;;;;;;-144.73;85.88;54194.25;5055827;28;20384;-69
2023/06/12 01:03:09;;;;;;;15.75;4.13;;;;;;;-144.73;85.73;54157.31;5059223;28;20029;-69
2023/06/12 01:05:38;;;;;;;6.70;3.35;;;;;;;-144.73;86.14;54167.56;5056831;28;20070;-69
2023/06/12 01:08:28;;;;;;;14.35;3.80;;;;;;;-144.73;86.56;54196.28;5056154;28;20029;-69
2023/06/12 01:10:59;;;;;;;11.88;3.90;;;;;;;-144.73;86.09;54155.25;5054108;28;20021;-69
2023/06/12 01:13:25;;;;;;;9.98;4.00;;;;;;;-144.73;86.19;54132.69;5070906;28;20024;-69
2023/06/12 01:15:51;;;;;;;9.68;3.22;;;;;;;-144.73;87.30;54157.31;5072910;28;20059;-69
2023/06/12 01:18:17;;;;;;;12.82;3.65;;;;;;;-144.73;87.74;54157.31;5052025;28;20052;-69
2023/06/12 01:20:43;;;;;;;10.55;3.85;;;;;;;-144.73;87.38;54165.50;5071038;28;20024;-69
2023/06/12 01:23:11;;;;;;;12.95;3.55;;;;;;;-144.73;87.50;54165.50;5070230;28;20103;-69
2023/06/12 01:26:14;;;;;;;8.90;3.50;;;;;;;-144.73;88.66;54202.44;5072589;28;20031;-69
2023/06/12 01:29:15;;;;;;;21.48;4.28;;;;;;;-144.73;88.22;54153.19;5068717;28;20033;-69
2023/06/12 01:31:59;;;;;;;14.57;4.10;;;;;;;-144.73;88.32;54177.81;5070205;28;20047;-69
2023/06/12 01:34:56;;;;;;;9.07;3.72;;;;;;;-144.73;89.41;54163.47;5055572;28;20493;-69
2023/06/12 01:37:42;;;;;;;14.75;3.90;;;;;;;-144.73;88.94;54159.34;5052033;28;20032;-69
2023/06/12 01:40:09;;;;;;;13.02;3.75;;;;;;;-144.73;87.87;54165.50;5070773;28;20024;-69
2023/06/12 01:42:35;;;;;;;12.63;3.85;;;;;;;-144.73;88.99;54218.88;5070490;28;20097;-68
2023/06/12 01:45:00;;;;;;;13.32;3.97;;;;;;;-144.73;88.80;54145.00;5065114;28;20091;-69
2023/06/12 01:47:26;;;;;;;22.77;4.45;;;;;;;-144.73;89.62;54202.44;5056208;28;20043;-69
2023/06/12 01:49:51;;;;;;;7.43;3.85;;;;;;;-144.73;89.36;54218.88;5069069;28;20027;-69
2023/06/12 01:52:17;;;;;;;12.70;4.40;;;;;;;-144.73;88.99;54165.50;5063651;28;20047;-69
2023/06/12 01:54:45;;;;;;;14.98;4.25;;;;;;;-144.73;90.34;54190.13;5072567;28;20029;-70
2023/06/12 01:57:11;;;;;;;11.13;3.70;;;;;;;-144.73;90.43;54194.25;5056109;28;20056;-70
2023/06/12 01:59:37;;;;;;;7.55;3.72;;;;;;;-144.73;90.09;54181.94;5055966;28;20479;-69
2023/06/12 02:02:03;;;;;;;14.88;4.07;;;;;;;-144.73;90.82;54204.50;5053469;28;20036;-70
2023/06/12 02:04:29;;;;;;;12.18;3.45;;;;;;;-144.73;90.71;54173.72;5059853;28;20081;-70
2023/06/12 02:06:54;;;;;;;9.40;3.70;;;;;;;-144.73;91.04;54181.94;5067746;28;20067;-70
2023/06/12 02:09:19;;;;;;;15.43;4.13;;;;;;;-144.73;90.54;54165.50;5072303;28;20070;-69
2023/06/12 02:11:45;;;;;;;7.75;3.83;;;;;;;-144.73;90.97;54173.72;5071630;28;20116;-69
2023/06/12 02:14:10;;;;;;;11.35;4.18;;;;;;;-144.73;91.71;54149.09;5072473;28;20021;-69
2023/06/12 02:16:35;;;;;;;13.43;4.13;;;;;;;-144.73;90.31;54157.31;5055179;28;20178;-70
2023/06/12 02:19:01;;;;;;;14.05;4.05;;;;;;;-144.73;90.72;54190.13;5055149;28;20028;-70
2023/06/12 02:21:26;;;;;;;17.55;3.83;;;;;;;-144.73;90.00;54206.56;5071013;28;20016;-69
2023/06/12 02:23:52;;;;;;;13.88;4.57;;;;;;;-144.73;90.95;54171.66;5053875;28;20020;-70
2023/06/12 02:26:17;;;;;;;11.75;4.80;;;;;;;-144.73;90.80;54194.25;5047952;28;20047;-69
2023/06/12 02:28:43;;;;;;;11.23;4.32;;;;;;;-144.73;90.59;54194.25;5070771;28;20040;-70
2023/06/12 02:31:08;;;;;;;15.68;4.80;;;;;;;-144.73;90.10;54169.63;5060788;28;20054;-69
2023/06/12 02:33:34;;;;;;;12.43;3.95;;;;;;;-144.73;89.94;54222.97;5070662;28;20403;-69
2023/06/12 02:36:00;;;;;;;16.80;3.92;;;;;;;-144.73;91.68;54177.81;5056312;28;20020;-69
2023/06/12 02:38:26;;;;;;;11.30;4.00;;;;;;;-144.73;90.14;54177.81;5057277;28;20107;-70
2023/06/12 02:40:51;;;;;;;16.27;4.78;;;;;;;-144.73;90.85;54181.94;5054172;28;20075;-69
2023/06/12 02:43:17;;;;;;;12.07;4.88;;;;;;;-144.73;91.41;54173.72;5070916;28;20024;-70
2023/06/12 02:45:45;;;;;;;17.48;4.78;;;;;;;-144.73;91.05;54171.66;5054916;28;20035;-70
2023/06/12 02:48:10;;;;;;;11.63;4.45;;;;;;;-144.73;91.05;54214.78;5052024;28;20079;-70
2023/06/12 02:50:36;;;;;;;16.23;4.22;;;;;;;-144.73;91.23;54132.69;5057990;28;20040;-69
2023/06/12 02:53:01;;;;;;;30.35;4.38;;;;;;;-144.73;90.49;54157.31;5071316;28;20024;-70
2023/06/12 02:55:26;;;;;;;11.52;4.20;;;;;;;-144.73;89.57;54165.50;5052511;28;20017;-70
2023/06/12 02:57:53;;;;;;;8.30;4.05;;;;;;;-144.73;90.05;54196.28;5069359;28;20044;-70
2023/06/12 03:00:18;;;;;;;12.70;4.30;;;;;;;-144.73;89.98;54169.63;5070215;28;20017;-70
2023/06/12 03:02:45;;;;;;;19.67;3.92;;;;;;;-144.73;91.85;54173.72;5053143;28;20035;-70
2023/06/12 03:05:14;;;;;;;11.60;4.53;;;;;;;-144.73;92.84;54190.13;5053393;28;20029;-70
2023/06/12 03:07:41;;;;;;;10.20;4.22;;;;;;;-144.73;93.40;54165.50;5054983;28;20044;-70
2023/06/12 03:10:08;;;;;;;11.02;4.20;;;;;;;-144.73;91.52;54155.25;5057089;28;20024;-71
2023/06/12 03:12:34;;;;;;;13.35;4.72;;;;;;;-144.73;92.74;54155.25;5055928;28;20028;-70
2023/06/12 03:15:00;;;;;;;24.05;4.53;;;;;;;-144.73;94.50;54190.13;5048698;28;20093;-71
2023/06/12 03:17:25;;;;;;;14.82;4.50;;;;;;;-144.73;93.07;54181.94;5069334;28;20056;-71
2023/06/12 03:19:50;;;;;;;13.77;4.70;;;;;;;-144.73;94.17;54194.25;5052260;28;20043;-71
2023/06/12 03:22:16;;;;;;;18.00;4.50;;;;;;;-144.73;93.79;54173.72;5069531;28;20114;-70
2023/06/12 03:24:41;;;;;;;18.88;5.00;;;;;;;-144.73;94.11;54225.03;5052393;28;20099;-70
2023/06/12 03:27:08;;;;;;;13.48;4.60;;;;;;;-144.73;92.16;54173.72;5051680;28;20036;-71
2023/06/12 03:29:34;;;;;;;17.85;5.03;;;;;;;-144.73;93.08;54181.94;5052104;28;20039;-71
2023/06/12 03:31:59;;;;;;;14.57;4.70;;;;;;;-144.73;92.64;54190.13;5050634;28;20084;-69
2023/06/12 03:34:25;;;;;;;11.63;4.53;;;;;;;-144.73;91.88;54169.63;5069212;28;20024;-69
2023/06/12 03:36:50;;;;;;;11.27;4.25;;;;;;;-144.73;91.13;54177.81;5051343;28;20150;-69
2023/06/12 03:39:16;;;;;;;7.88;4.20;;;;;;;-144.73;91.53;54173.72;5052290;28;20597;-69
2023/06/12 03:41:56;;;;;;;11.38;4.05;;;;;;;-144.73;92.03;54218.88;5049419;28;20044;-70
2023/06/12 03:44:21;;;;;;;9.43;4.50;;;;;;;-144.73;90.30;54161.41;5051459;28;20032;-69
2023/06/12 03:46:47;;;;;;;17.45;5.05;;;;;;;-144.73;90.26;54186.03;5050350;28;20039;-69
2023/06/12 03:49:12;;;;;;;15.40;4.18;;;;;;;-144.73;90.70;54190.13;5050156;28;20031;-70
2023/06/12 03:51:37;;;;;;;27.08;4.60;;;;;;;-144.73;89.91;54190.13;5068597;28;20032;-70
2023/06/12 03:54:03;;;;;;;11.73;3.97;;;;;;;-144.73;89.17;54173.72;5051252;28;20012;-70
2023/06/12 03:56:28;;;;;;;8.32;4.10;;;;;;;-144.73;89.18;54186.03;5051594;28;20025;-70
2023/06/12 03:58:53;;;;;;;17.92;4.90;;;;;;;-144.73;88.98;54163.47;5051237;28;20467;-70
2023/06/12 04:01:19;;;;;;;9.40;4.30;;;;;;;-144.73;87.80;54173.72;5050599;28;20158;-70
2023/06/12 04:03:45;;;;;;;17.60;7.28;;;;;;;-144.73;88.10;54181.94;5050354;28;20081;-70
2023/06/12 04:06:11;;;;;;;20.42;7.88;;;;;;;-144.73;87.54;54186.03;5046157;28;20017;-70
2023/06/12 04:08:37;;;;;;;16.77;4.65;;;;;;;-144.73;87.36;54173.72;5049906;28;20032;-70
2023/06/12 04:11:04;;;;;;;19.17;5.93;;;;;;;-144.73;87.69;54173.72;5068733;28;20020;-70
2023/06/12 04:13:29;;;;;;;10.48;3.90;;;;;;;-144.73;87.61;54198.34;5049279;28;20042;-70
2023/06/12 04:15:57;;;;;;;7.57;4.57;;;;;;;-144.73;87.80;54186.03;5050723;28;20107;-70
2023/06/12 04:18:23;;;;;;;12.60;4.60;;;;;;;-144.73;86.95;54153.19;5050521;28;20036;-70
2023/06/12 04:20:49;;;;;;;13.38;4.38;;;;;;;-144.73;87.09;54136.78;5050727;28;20024;-70
2023/06/12 04:23:16;;;;;;;17.45;4.25;;;;;;;-144.73;86.44;54206.56;5047025;28;20033;-71
2023/06/12 04:25:43;;;;;;;11.57;4.75;;;;;;;-144.73;86.74;54210.66;5058017;28;20029;-71
2023/06/12 04:28:13;;;;;;;11.35;4.78;;;;;;;-144.73;85.89;54202.44;5068263;28;20460;-70
2023/06/12 04:30:41;;;;;;;17.45;5.03;;;;;;;-144.73;86.21;54165.50;5055276;28;20032;-71
2023/06/12 04:33:09;;;;;;;12.80;4.65;;;;;;;-144.73;86.31;54173.72;5050348;28;20031;-71
2023/06/12 04:35:35;;;;;;;10.68;4.95;;;;;;;-144.73;86.76;54165.50;5050935;28;20012;-71
2023/06/12 04:38:00;;;;;;;11.50;4.90;;;;;;;-144.73;85.24;54210.66;5053094;28;20131;-71
2023/06/12 04:40:26;;;;;;;10.95;4.55;;;;;;;-144.73;85.85;54173.72;5068880;28;20050;-71
2023/06/12 04:42:56;;;;;;;10.35;4.43;;;;;;;-144.73;85.58;54206.56;5050223;28;20058;-70
2023/06/12 04:45:23;;;;;;;15.30;5.60;;;;;;;-144.73;85.00;54169.63;5068306;28;20025;-71
2023/06/12 04:47:49;;;;;;;17.20;4.55;;;;;;;-144.73;85.45;54181.94;5049630;28;20032;-71
2023/06/12 04:50:15;;;;;;;9.20;5.15;;;;;;;-144.73;85.20;54202.44;5050688;28;20047;-71
2023/06/12 04:52:41;;;;;;;14.55;5.22;;;;;;;-144.73;84.27;54173.72;5050165;28;20049;-71
2023/06/12 04:55:09;;;;;;;11.35;4.97;;;;;;;-144.73;83.23;54181.94;5068137;28;20028;-70
2023/06/12 04:57:39;;;;;;;16.35;6.13;;;;;;;-144.73;83.54;54157.31;5050146;28;20033;-70
2023/06/12 05:00:15;;;;;;;14.02;4.57;;;;;;;-144.73;83.48;54169.63;5066392;28;20012;-70
2023/06/12 05:02:41;;;;;;;12.05;5.45;;;;;;;-144.73;83.09;54190.13;5046437;28;20036;-69
2023/06/12 05:05:07;;;;;;;17.60;5.32;;;;;;;-144.73;81.71;54181.94;5050929;28;20023;-70
2023/06/12 05:07:35;;;;;;;18.55;5.13;;;;;;;-144.73;82.35;54175.78;5049486;28;20112;-70
2023/06/12 05:10:01;;;;;;;8.75;4.95;;;;;;;-144.73;82.61;54206.56;5050201;28;20042;-70
2023/06/12 05:12:27;;;;;;;17.50;5.15;;;;;;;-144.73;80.91;54159.34;5068280;28;20116;-71
2023/06/12 05:14:52;;;;;;;13.68;4.63;;;;;;;-144.73;81.55;54210.66;5050574;28;20029;-70
2023/06/12 05:17:17;;;;;;;17.55;4.97;;;;;;;-144.73;80.09;54177.81;5067841;28;20403;-71
2023/06/12 05:19:43;;;;;;;10.85;4.97;;;;;;;-144.73;79.67;54161.41;5068026;28;20032;-71
2023/06/12 05:22:08;;;;;;;14.00;4.80;;;;;;;-144.73;80.11;54149.09;5067686;28;20033;-71
2023/06/12 05:24:34;;;;;;;10.27;4.78;;;;;;;-144.73;78.68;54161.41;5068572;28;20111;-71
2023/06/12 05:27:00;;;;;;;17.90;5.28;;;;;;;-144.73;77.35;54177.81;5050004;28;20033;-71
2023/06/12 05:29:26;;;;;;;12.40;4.72;;;;;;;-144.73;75.61;54181.94;5050698;28;20016;-70
2023/06/12 05:31:52;;;;;;;13.15;4.53;;;;;;;-144.73;74.62;54177.81;5047912;28;20050;-71
2023/06/12 05:34:17;;;;;;;11.07;4.65;;;;;;;-144.73;73.38;54169.63;5062560;28;20066;-71
2023/06/12 05:36:42;;;;;;;20.70;5.07;;;;;;;-144.73;74.35;54145.00;5068046;28;20039;-71
2023/06/12 05:39:08;;;;;;;18.40;5.60;;;;;;;-144.73;72.77;54132.69;5056761;28;20028;-71
2023/06/12 05:41:34;;;;;;;13.82;5.60;;;;;;;-144.73;71.73;54145.00;5067077;28;20033;-71
2023/06/12 05:44:00;;;;;;;13.05;6.15;;;;;;;-144.73;70.39;54231.19;5054085;28;20027;-71
2023/06/12 05:46:26;;;;;;;14.82;5.65;;;;;;;-144.73;68.31;54177.81;5050587;28;20471;-71
2023/06/12 05:48:51;;;;;;;14.32;5.57;;;;;;;-144.73;65.54;54186.03;5069639;28;20032;-71
2023/06/12 05:51:16;;;;;;;11.18;4.97;;;;;;;-144.73;65.38;54157.31;5071683;28;20070;-71
2023/06/12 05:53:45;;;;;;;15.48;4.95;;;;;;;-144.73;65.30;54145.00;5053311;28;20032;-70
2023/06/12 05:56:13;;;;;;;14.75;5.60;;;;;;;-144.73;63.88;54183.97;5053580;28;20028;-70
2023/06/12 05:58:40;;;;;;;19.65;4.80;;;;;;;-144.73;63.48;54192.19;5052935;28;20032;-70
2023/06/12 06:01:09;;;;;;;30.65;5.35;;;;;;;-144.73;63.05;54145.00;5051598;28;20052;-70
2023/06/12 06:03:35;;;;;;;16.52;5.60;;;;;;;-144.73;62.30;54132.69;5070488;28;20594;-70
2023/06/12 06:06:00;;;;;;;11.65;5.25;;;;;;;-144.73;62.53;54173.72;5051806;28;20100;-70
2023/06/12 06:08:25;;;;;;;14.85;4.80;;;;;;;-144.73;62.12;54177.81;5069779;28;20121;-73
2023/06/12 06:10:51;;;;;;;10.10;5.18;;;;;;;-144.73;62.41;54183.97;5065898;28;20037;-72
2023/06/12 06:13:16;;;;;;;15.60;5.85;;;;;;;-144.73;61.70;54136.78;5069952;28;20515;-72
2023/06/12 06:15:41;;;;;;;20.13;5.85;;;;;;;-144.73;62.75;54132.69;5052748;28;20025;-73
2023/06/12 06:18:07;;;;;;;10.32;5.60;;;;;;;-144.73;62.64;54161.41;5070235;28;20029;-72
2023/06/12 06:20:33;;;;;;;13.02;5.15;;;;;;;-144.73;62.15;54157.31;5074410;28;20050;-72
2023/06/12 06:22:59;;;;;;;17.63;5.57;;;;;;;-144.73;62.02;54163.47;5051390;28;20040;-73
2023/06/12 06:25:24;;;;;;;40.70;6.78;;;;;;;-144.73;61.25;54173.72;5070691;28;20028;-73
2023/06/12 06:27:50;;;;;;;13.13;5.28;;;;;;;-144.73;59.65;54161.41;5051906;28;20115;-73
2023/06/12 06:30:15;;;;;;;52.42;8.55;;;;;;;-144.73;59.21;54157.31;5068979;28;20020;-72
2023/06/12 06:32:41;;;;;;;37.03;6.45;;;;;;;-144.73;58.51;54151.16;5047083;28;20037;-72
2023/06/12 06:35:06;;;;;;;22.55;6.63;;;;;;;-144.73;58.21;54145.00;5051037;28;20467;-72
2023/06/12 06:37:32;;;;;;;28.95;6.45;;;;;;;-144.73;58.46;54145.00;5068194;28;20036;-72
2023/06/12 06:39:57;;;;;;;55.67;6.57;;;;;;;-144.73;56.55;54153.19;5049603;28;20036;-72
2023/06/12 06:42:22;;;;;;;55.95;6.60;;;;;;;-144.73;56.22;54188.09;5047737;28;20491;-72
2023/06/12 06:44:49;;;;;;;18.88;5.38;;;;;;;-144.73;54.82;54161.41;5069409;28;20029;-77
2023/06/12 06:47:14;;;;;;;18.15;5.57;;;;;;;-144.73;56.13;54124.47;5052456;28;20107;-78
2023/06/12 06:49:40;;;;;;;20.83;6.25;;;;;;;-144.73;54.95;54165.50;5075673;28;20074;-78
2023/06/12 06:52:06;;;;;;;20.60;5.90;;;;;;;-144.73;54.85;54153.19;5056551;28;20025;-77
2023/06/12 06:54:31;;;;;;;14.93;5.45;;;;;;;-144.73;54.80;54147.03;5057480;28;20021;-77
2023/06/12 06:56:57;;;;;;;17.70;6.60;;;;;;;-144.73;53.31;54130.63;5060046;28;20542;-77
2023/06/12 06:59:23;;;;;;;16.10;5.63;;;;;;;-144.73;52.25;54153.19;5058313;28;20027;-77
2023/06/12 07:01:49;;;;;;;19.17;6.05;;;;;;;-144.73;52.64;54167.56;5063975;28;20071;-77
2023/06/12 07:04:14;;;;;;;13.45;5.40;;;;;;;-144.73;52.81;54083.41;5059401;28;20017;-76
2023/06/12 07:06:40;;;;;;;25.77;5.45;;;;;;;-144.73;52.51;54134.72;5056450;28;20047;-78
2023/06/12 07:09:06;;;;;;;13.68;5.13;;;;;;;-144.73;50.93;54157.31;5069691;28;20107;-77
2023/06/12 07:11:31;;;;;;;21.88;5.53;;;;;;;-144.73;50.52;54149.09;5058655;28;20059;-77
2023/06/12 07:13:57;;;;;;;17.83;5.38;;;;;;;-144.73;50.26;54177.81;5063184;28;20024;-78
2023/06/12 07:16:22;;;;;;;16.23;4.70;;;;;;;-144.73;49.84;54145.00;5065612;28;20029;-78
2023/06/12 07:18:48;;;;;;;18.63;4.78;;;;;;;-144.73;50.20;54149.09;5081085;28;20025;-78
2023/06/12 07:21:14;;;;;;;10.82;4.90;;;;;;;-144.73;50.27;54128.56;5068398;28;20480;-77
2023/06/12 07:23:40;;;;;;;17.40;5.22;;;;;;;-144.73;50.15;54145.00;5061085;28;20037;-77
2023/06/12 07:26:05;;;;;;;17.75;5.07;;;;;;;-144.73;48.75;54124.47;5054098;28;20020;-77
2023/06/12 07:28:30;;;;;;;11.02;4.78;;;;;;;-144.73;47.67;54101.88;5059163;28;20032;-77
2023/06/12 07:30:56;;;;;;;12.18;5.63;;;;;;;-144.73;46.92;54095.72;5059719;28;20040;-78
2023/06/12 07:33:21;;;;;;;17.98;5.47;;;;;;;-144.73;46.81;54091.63;5079620;28;20048;-78
2023/06/12 07:35:46;;;;;;;19.27;5.60;;;;;;;-144.73;46.21;54116.25;5065476;28;20028;-77
2023/06/12 07:38:12;;;;;;;17.35;4.93;;;;;;;-144.73;46.21;54108.03;5050897;28;20081;-77
2023/06/12 07:40:38;;;;;;;18.60;5.53;;;;;;;-144.73;45.63;54101.88;5054945;28;20021;-76
2023/06/12 07:43:04;;;;;;;16.80;4.85;;;;;;;-144.73;44.54;54112.16;5047260;28;20037;-77
2023/06/12 07:45:30;;;;;;;14.77;4.72;;;;;;;-144.73;42.84;54116.25;5068873;28;20169;-77
2023/06/12 07:47:57;;;;;;;15.55;5.07;;;;;;;-144.73;42.36;54091.63;5052515;28;20053;-77
2023/06/12 07:50:23;;;;;;;57.58;5.75;;;;;;;-144.73;42.56;54108.03;5067741;28;20351;-76
2023/06/12 07:52:49;;;;;;;18.73;5.10;;;;;;;-144.73;42.44;54103.94;5045554;28;20031;-77
2023/06/12 07:55:14;;;;;;;12.07;5.03;;;;;;;-144.73;41.86;54108.03;5069743;28;20103;-76
2023/06/12 07:57:40;;;;;;;16.23;4.55;;;;;;;-144.73;41.11;54075.22;5065006;28;20029;-77
2023/06/12 08:00:07;;;;;;;15.48;4.85;;;;;;;-144.73;40.50;54124.47;5051172;28;20032;-76
2023/06/12 08:02:33;;;;;;;21.55;5.50;;;;;;;-144.73;40.44;54087.53;5069700;28;20033;-77
2023/06/12 08:04:59;;;;;;;20.10;4.13;;;;;;;-144.73;40.06;54153.19;5046535;28;20028;-77
2023/06/12 08:07:26;;;;;;;27.08;4.85;;;;;;;-144.73;39.18;54087.53;5051898;28;20055;-77
2023/06/12 08:09:51;;;;;;;22.77;4.32;;;;;;;-144.73;37.86;54062.91;5070491;28;20074;-76
2023/06/12 08:12:17;;;;;;;16.20;5.20;;;;;;;-144.73;37.90;54120.34;5052371;28;20029;-77
2023/06/12 08:14:44;;;;;;;11.90;4.18;;;;;;;-144.73;38.00;54122.41;5059465;28;20024;-77
2023/06/12 08:17:11;;;;;;;12.63;4.97;;;;;;;-144.73;38.85;54071.09;5055251;28;20052;-77
2023/06/12 08:19:36;;;;;;;20.73;4.57;;;;;;;-144.73;37.97;54040.31;5055082;28;20054;-77
2023/06/12 08:22:03;;;;;;;14.55;5.03;;;;;;;-144.73;37.99;54075.22;5060869;28;20075;-77
2023/06/12 08:24:30;;;;;;;38.88;5.32;;;;;;;-144.73;38.08;54091.63;5052133;28;20388;-77
2023/06/12 08:26:58;;;;;;;19.25;4.22;;;;;;;-144.73;36.36;54075.22;5070798;28;20029;-77
2023/06/12 08:29:24;;;;;;;47.55;5.68;;;;;;;-144.73;35.54;54112.16;5070884;28;20024;-77
2023/06/12 08:31:49;;;;;;;19.70;4.18;;;;;;;-144.73;35.25;54044.44;5048492;28;20039;-77
2023/06/12 08:34:15;;;;;;;19.27;4.55;;;;;;;-144.73;35.18;54083.41;5050268;28;20089;-77
2023/06/12 08:36:41;;;;;;;24.77;5.80;;;;;;;-144.73;36.51;54075.22;5052555;28;20016;-76
2023/06/12 08:39:06;;;;;;;23.38;4.47;;;;;;;-144.73;36.51;54058.78;5050540;28;20052;-77
2023/06/12 08:41:34;;;;;;;19.35;4.35;;;;;;;-144.73;36.01;54058.78;5052180;28;20023;-77
2023/06/12 08:44:00;;;;;;;21.45;4.28;;;;;;;-144.73;35.40;54075.22;5053125;28;20368;-77
2023/06/12 08:46:30;;;;;;;13.32;4.30;;;;;;;-144.73;35.61;54054.69;5051378;28;20023;-77
2023/06/12 08:48:59;;;;;;;18.92;4.63;;;;;;;-144.73;34.58;54058.78;5054116;28;20020;-77
2023/06/12 08:51:25;;;;;;;21.08;4.80;;;;;;;-144.73;34.95;54095.72;5053583;28;20028;-77
2023/06/12 08:53:51;;;;;;;10.52;4.38;;;;;;;-144.73;34.42;54050.59;5055277;28;20008;-77
2023/06/12 08:56:16;;;;;;;13.85;4.38;;;;;;;-144.73;33.99;54058.78;5055087;28;20040;-76
2023/06/12 08:58:42;;;;;;;13.40;4.05;;;;;;;-144.73;33.91;54073.16;5053836;28;20047;-76
2023/06/12 09:01:12;;;;;;;15.02;4.35;;;;;;;-144.73;34.33;54099.84;5070691;28;20052;-77
2023/06/12 09:03:43;;;;;;;26.00;5.10;;;;;;;-144.73;34.06;54042.38;5072104;28;20056;-77
2023/06/12 09:06:11;;;;;;;19.67;4.63;;;;;;;-144.73;33.99;54046.47;5050074;28;20029;-77
2023/06/12 09:08:38;;;;;;;15.30;4.07;;;;;;;-144.73;33.96;54040.31;5074026;28;20127;-76
2023/06/12 09:11:04;;;;;;;16.00;4.00;;;;;;;-144.73;33.55;54087.53;5056468;28;20020;-71
2023/06/12 09:13:42;;;;;;;21.63;4.20;;;;;;;-144.73;33.23;54083.41;5070410;28;20028;-72
2023/06/12 09:16:12;;;;;;;8.98;3.55;;;;;;;-144.73;32.08;54048.53;5053542;28;20480;-73
2023/06/12 09:18:52;;;;;;;10.13;3.55;;;;;;;-144.73;30.95;54062.91;5055053;28;20059;-73
2023/06/12 09:21:17;;;;;;;10.55;3.70;;;;;;;-144.73;31.34;54075.22;5054209;28;20074;-75
2023/06/12 09:23:45;;;;;;;12.60;4.30;;;;;;;-144.73;31.54;54095.72;5048173;28;20032;-72
2023/06/12 09:26:15;;;;;;;11.55;3.92;;;;;;;-144.73;31.36;54034.16;5071195;28;20024;-72
2023/06/12 09:28:42;;;;;;;16.10;3.78;;;;;;;-144.73;31.80;54038.25;5050088;28;20067;-73
2023/06/12 09:31:08;;;;;;;5.82;3.80;;;;;;;-144.73;31.28;54058.78;5070053;28;20050;-75
2023/06/12 09:33:38;;;;;;;12.93;4.40;;;;;;;-144.73;30.81;54054.69;5065606;28;20024;-76
2023/06/12 09:36:04;;;;;;;19.15;4.25;;;;;;;-144.73;31.14;54028.00;5053979;28;20020;-73
2023/06/12 09:38:34;;;;;;;21.35;4.05;;;;;;;-144.73;30.15;54046.47;5052416;28;20048;-72
2023/06/12 09:41:03;;;;;;;12.00;4.78;;;;;;;-144.73;29.83;54030.06;5057927;28;20024;-72
2023/06/12 09:43:30;;;;;;;19.83;4.28;;;;;;;-144.73;30.67;54030.06;5069016;28;20029;-73
2023/06/12 09:45:57;;;;;;;24.65;4.13;;;;;;;-144.73;30.35;54054.69;5053176;28;20020;-73
2023/06/12 09:48:22;;;;;;;19.15;4.65;;;;;;;-144.73;29.55;54034.16;5052688;28;20039;-73
2023/06/12 09:50:48;;;;;;;20.10;3.63;;;;;;;-144.73;29.73;54038.25;5056072;28;20029;-73
2023/06/12 09:53:16;;;;;;;17.65;4.00;;;;;;;-144.73;29.44;54017.75;5070589;28;20078;-73
2023/06/12 09:55:44;;;;;;;8.23;3.80;;;;;;;-144.73;29.30;54054.69;5048252;28;20028;-72
2023/06/12 09:58:17;;;;;;;17.20;4.53;;;;;;;-144.73;29.38;54073.16;5051900;28;20037;-73
2023/06/12 10:00:43;;;;;;;14.38;4.15;;;;;;;-144.73;29.72;54075.22;5044738;28;20032;-72
2023/06/12 10:03:11;;;;;;;13.20;4.25;;;;;;;-144.73;29.35;54013.63;5052691;28;20032;-72
2023/06/12 10:05:40;;;;;;;17.00;4.28;;;;;;;-144.73;28.65;54034.16;5046794;28;20031;-72
2023/06/12 10:08:06;;;;;;;12.48;4.03;;;;;;;-144.73;28.58;54050.59;5056130;28;20036;-74
2023/06/12 10:10:33;;;;;;;25.92;4.22;;;;;;;-144.73;28.51;54034.16;5052817;28;20017;-72
2023/06/12 10:13:01;;;;;;;35.53;4.60;;;;;;;-144.73;27.96;54021.84;5049673;28;20104;-73
2023/06/12 10:15:28;;;;;;;15.68;4.68;;;;;;;-144.73;27.75;54054.69;5064939;28;20046;-73
2023/06/12 10:17:55;;;;;;;14.85;4.40;;;;;;;-144.73;28.22;54030.06;5052174;28;20033;-72
2023/06/12 10:20:23;;;;;;;16.00;4.75;;;;;;;-144.73;27.12;54034.16;5050293;28;20021;-74
2023/06/12 10:22:49;;;;;;;20.67;4.90;;;;;;;-144.73;27.05;54058.78;5049062;28;20553;-72
2023/06/12 10:25:16;;;;;;;13.35;4.18;;;;;;;-144.73;27.19;54050.59;5070026;28;20078;-76
2023/06/12 10:27:42;;;;;;;21.30;3.80;;;;;;;-144.73;27.36;54030.06;5052362;28;20040;-73
2023/06/12 10:30:12;;;;;;;8.82;4.32;;;;;;;-144.73;27.32;54071.09;5052972;28;20069;-72
2023/06/12 10:32:41;;;;;;;15.35;4.32;;;;;;;-144.73;27.15;54042.38;5051934;28;20031;-72
2023/06/12 10:35:07;;;;;;;11.10;4.22;;;;;;;-144.73;26.70;54071.09;5056928;28;20024;-73
2023/06/12 10:37:38;;;;;;;18.00;4.00;;;;;;;-144.73;26.10;54038.25;5052767;28;20119;-73
2023/06/12 10:40:12;;;;;;;13.27;3.15;;;;;;;-144.73;26.12;54034.16;5050505;28;20373;-73
2023/06/12 10:42:52;;;;;;;10.55;4.40;;;;;;;-144.73;25.97;54042.38;5047844;28;20041;-73
2023/06/12 10:45:29;;;;;;;7.23;3.77;;;;;;;-144.73;26.73;54013.63;5053234;28;20028;-73
2023/06/12 10:48:04;;;;;;;9.02;3.50;;;;;;;-144.73;26.49;54013.63;5066267;28;20292;-73
2023/06/12 10:50:44;;;;;;;13.02;3.20;;;;;;;-144.73;25.75;54013.63;5051644;28;20031;-75
2023/06/12 10:53:15;;;;;;;13.00;4.43;;;;;;;-144.73;25.62;54034.16;5050621;28;20031;-74
2023/06/12 10:55:42;;;;;;;9.32;3.85;;;;;;;-144.73;25.41;54025.94;5053174;28;20025;-77
2023/06/12 10:58:13;;;;;;;6.68;3.28;;;;;;;-144.73;25.48;54038.25;5056416;28;20029;-73
2023/06/12 11:00:42;;;;;;;9.63;3.35;;;;;;;-144.73;25.49;54025.94;5053157;28;20107;-73
2023/06/12 11:03:18;;;;;;;10.60;4.03;;;;;;;-144.73;25.04;54025.94;5050448;28;20037;-73
2023/06/12 11:05:49;;;;;;;9.75;3.78;;;;;;;-144.73;25.23;54021.84;5039813;28;20020;-74
2023/06/12 11:08:15;;;;;;;7.35;3.47;;;;;;;-144.73;25.21;54030.06;5050501;28;20032;-73
2023/06/12 11:10:42;;;;;;;13.20;3.50;;;;;;;-144.73;25.07;53980.81;5068909;28;20518;-73